sensor_id;sensor_type;location;lat;lon;timestamp;temperature;humidity
20487;DHT22;10402;49.012;8.370;2024-01-30T00:01:49;5.60;88.80
20487;DHT22;10402;49.012;8.370;2024-01-30T00:04:14;5.60;88.60
20487;DHT22;10402;49.012;8.370;2024-01-30T00:06:41;5.60;88.50
20487;DHT22;10402;49.012;8.370;2024-01-30T00:09:07;5.60;88.50
20487;DHT22;10402;49.012;8.370;2024-01-30T00:11:34;5.60;88.60
20487;DHT22;10402;49.012;8.370;2024-01-30T00:13:59;5.50;88.50
20487;DHT22;10402;49.012;8.370;2024-01-30T00:16:25;5.50;88.60
20487;DHT22;10402;49.012;8.370;2024-01-30T00:18:54;5.50;88.90
20487;DHT22;10402;49.012;8.370;2024-01-30T00:21:20;5.60;89.10
20487;DHT22;10402;49.012;8.370;2024-01-30T00:23:46;5.60;89.10
20487;DHT22;10402;49.012;8.370;2024-01-30T00:26:12;5.60;89.10
20487;DHT22;10402;49.012;8.370;2024-01-30T00:28:40;5.60;89.00
20487;DHT22;10402;49.012;8.370;2024-01-30T00:31:05;5.60;88.80
20487;DHT22;10402;49.012;8.370;2024-01-30T00:33:31;5.60;88.60
20487;DHT22;10402;49.012;8.370;2024-01-30T00:35:56;5.60;88.70
20487;DHT22;10402;49.012;8.370;2024-01-30T00:38:22;5.60;88.70
20487;DHT22;10402;49.012;8.370;2024-01-30T00:40:48;5.60;88.70
20487;DHT22;10402;49.012;8.370;2024-01-30T00:43:14;5.60;88.80
20487;DHT22;10402;49.012;8.370;2024-01-30T00:45:39;5.60;88.80
20487;DHT22;10402;49.012;8.370;2024-01-30T00:48:05;5.60;88.80
20487;DHT22;10402;49.012;8.370;2024-01-30T00:50:31;5.60;88.70
20487;DHT22;10402;49.012;8.370;2024-01-30T00:52:56;5.50;88.50
20487;DHT22;10402;49.012;8.370;2024-01-30T00:55:22;5.50;88.70
20487;DHT22;10402;49.012;8.370;2024-01-30T00:57:47;5.50;88.90
20487;DHT22;10402;49.012;8.370;2024-01-30T01:00:13;5.50;88.80
20487;DHT22;10402;49.012;8.370;2024-01-30T01:02:42;5.50;88.70
20487;DHT22;10402;49.012;8.370;2024-01-30T01:05:08;5.50;88.90
20487;DHT22;10402;49.012;8.370;2024-01-30T01:07:33;5.40;88.80
20487;DHT22;10402;49.012;8.370;2024-01-30T01:09:59;5.40;88.90
20487;DHT22;10402;49.012;8.370;2024-01-30T01:12:24;5.50;89.00
20487;DHT22;10402;49.012;8.370;2024-01-30T01:14:50;5.50;89.00
20487;DHT22;10402;49.012;8.370;2024-01-30T01:17:15;5.40;88.90
20487;DHT22;10402;49.012;8.370;2024-01-30T01:19:41;5.50;89.00
20487;DHT22;10402;49.012;8.370;2024-01-30T01:22:07;5.50;88.90
20487;DHT22;10402;49.012;8.370;2024-01-30T01:24:32;5.50;88.80
20487;DHT22;10402;49.012;8.370;2024-01-30T01:26:58;5.40;88.90
20487;DHT22;10402;49.012;8.370;2024-01-30T01:29:24;5.40;88.90
20487;DHT22;10402;49.012;8.370;2024-01-30T01:31:54;5.40;89.10
20487;DHT22;10402;49.012;8.370;2024-01-30T01:34:21;5.40;89.10
20487;DHT22;10402;49.012;8.370;2024-01-30T01:36:46;5.40;89.10
20487;DHT22;10402;49.012;8.370;2024-01-30T01:39:12;5.40;89.20
20487;DHT22;10402;49.012;8.370;2024-01-30T01:41:37;5.40;89.20
20487;DHT22;10402;49.012;8.370;2024-01-30T01:44:03;5.50;89.30
20487;DHT22;10402;49.012;8.370;2024-01-30T01:46:32;5.40;89.20
20487;DHT22;10402;49.012;8.370;2024-01-30T01:48:58;5.50;89.20
20487;DHT22;10402;49.012;8.370;2024-01-30T01:51:27;5.50;89.20
20487;DHT22;10402;49.012;8.370;2024-01-30T01:53:54;5.50;89.20
20487;DHT22;10402;49.012;8.370;2024-01-30T01:56:22;5.40;89.00
20487;DHT22;10402;49.012;8.370;2024-01-30T01:58:48;5.50;89.00
20487;DHT22;10402;49.012;8.370;2024-01-30T02:01:16;5.50;88.90
20487;DHT22;10402;49.012;8.370;2024-01-30T02:03:44;5.40;88.80
20487;DHT22;10402;49.012;8.370;2024-01-30T02:06:10;5.50;88.90
20487;DHT22;10402;49.012;8.370;2024-01-30T02:08:37;5.40;88.80
20487;DHT22;10402;49.012;8.370;2024-01-30T02:11:03;5.40;88.70
20487;DHT22;10402;49.012;8.370;2024-01-30T02:13:29;5.40;88.80
20487;DHT22;10402;49.012;8.370;2024-01-30T02:15:54;5.40;88.70
20487;DHT22;10402;49.012;8.370;2024-01-30T02:18:20;5.40;88.70
20487;DHT22;10402;49.012;8.370;2024-01-30T02:20:49;5.40;88.60
20487;DHT22;10402;49.012;8.370;2024-01-30T02:23:16;5.40;88.60
20487;DHT22;10402;49.012;8.370;2024-01-30T02:25:43;5.30;88.60
20487;DHT22;10402;49.012;8.370;2024-01-30T02:28:14;5.40;88.80
20487;DHT22;10402;49.012;8.370;2024-01-30T02:30:40;5.40;88.70
20487;DHT22;10402;49.012;8.370;2024-01-30T02:33:07;5.40;88.80
20487;DHT22;10402;49.012;8.370;2024-01-30T02:35:33;5.40;88.70
20487;DHT22;10402;49.012;8.370;2024-01-30T02:37:59;5.50;88.60
20487;DHT22;10402;49.012;8.370;2024-01-30T02:40:25;5.40;88.50
20487;DHT22;10402;49.012;8.370;2024-01-30T02:42:50;5.40;88.50
20487;DHT22;10402;49.012;8.370;2024-01-30T02:45:16;5.40;88.70
20487;DHT22;10402;49.012;8.370;2024-01-30T02:47:42;5.40;88.60
20487;DHT22;10402;49.012;8.370;2024-01-30T02:50:08;5.40;88.50
20487;DHT22;10402;49.012;8.370;2024-01-30T02:52:33;5.40;88.50
20487;DHT22;10402;49.012;8.370;2024-01-30T02:54:59;5.40;88.70
20487;DHT22;10402;49.012;8.370;2024-01-30T02:57:25;5.40;88.60
20487;DHT22;10402;49.012;8.370;2024-01-30T02:59:51;5.40;88.40
20487;DHT22;10402;49.012;8.370;2024-01-30T03:02:16;5.40;88.40
20487;DHT22;10402;49.012;8.370;2024-01-30T03:04:42;5.30;88.50
20487;DHT22;10402;49.012;8.370;2024-01-30T03:07:08;5.30;88.50
20487;DHT22;10402;49.012;8.370;2024-01-30T03:09:33;5.30;88.60
20487;DHT22;10402;49.012;8.370;2024-01-30T03:11:59;5.20;88.50
20487;DHT22;10402;49.012;8.370;2024-01-30T03:14:24;5.20;88.50
20487;DHT22;10402;49.012;8.370;2024-01-30T03:16:50;5.20;88.50
20487;DHT22;10402;49.012;8.370;2024-01-30T03:19:15;5.10;88.50
20487;DHT22;10402;49.012;8.370;2024-01-30T03:21:41;5.00;88.50
20487;DHT22;10402;49.012;8.370;2024-01-30T03:24:07;5.00;88.80
20487;DHT22;10402;49.012;8.370;2024-01-30T03:26:32;5.00;88.90
20487;DHT22;10402;49.012;8.370;2024-01-30T03:28:58;5.00;89.00
20487;DHT22;10402;49.012;8.370;2024-01-30T03:31:23;4.90;89.10
20487;DHT22;10402;49.012;8.370;2024-01-30T03:33:49;4.90;89.10
20487;DHT22;10402;49.012;8.370;2024-01-30T03:36:15;4.90;89.00
20487;DHT22;10402;49.012;8.370;2024-01-30T03:38:41;4.90;89.10
20487;DHT22;10402;49.012;8.370;2024-01-30T03:41:09;4.90;89.10
20487;DHT22;10402;49.012;8.370;2024-01-30T03:43:35;4.90;89.00
20487;DHT22;10402;49.012;8.370;2024-01-30T03:46:02;4.90;89.00
20487;DHT22;10402;49.012;8.370;2024-01-30T03:48:28;4.90;89.40
20487;DHT22;10402;49.012;8.370;2024-01-30T03:50:54;4.90;89.10
20487;DHT22;10402;49.012;8.370;2024-01-30T03:53:20;4.90;89.00
20487;DHT22;10402;49.012;8.370;2024-01-30T03:55:46;4.80;89.00
20487;DHT22;10402;49.012;8.370;2024-01-30T03:58:11;4.80;89.10
20487;DHT22;10402;49.012;8.370;2024-01-30T04:00:37;4.80;89.20
20487;DHT22;10402;49.012;8.370;2024-01-30T04:03:03;4.80;89.30
20487;DHT22;10402;49.012;8.370;2024-01-30T04:05:28;4.80;90.00
20487;DHT22;10402;49.012;8.370;2024-01-30T04:07:54;4.80;89.40
20487;DHT22;10402;49.012;8.370;2024-01-30T04:10:20;4.80;89.40
20487;DHT22;10402;49.012;8.370;2024-01-30T04:12:45;4.80;89.40
20487;DHT22;10402;49.012;8.370;2024-01-30T04:15:11;4.70;89.40
20487;DHT22;10402;49.012;8.370;2024-01-30T04:17:38;4.80;89.50
20487;DHT22;10402;49.012;8.370;2024-01-30T04:20:05;4.80;89.60
20487;DHT22;10402;49.012;8.370;2024-01-30T04:22:31;4.80;89.40
20487;DHT22;10402;49.012;8.370;2024-01-30T04:24:56;4.80;89.40
20487;DHT22;10402;49.012;8.370;2024-01-30T04:27:22;4.70;89.40
20487;DHT22;10402;49.012;8.370;2024-01-30T04:29:47;4.70;89.50
20487;DHT22;10402;49.012;8.370;2024-01-30T04:32:13;4.70;89.70
20487;DHT22;10402;49.012;8.370;2024-01-30T04:34:39;4.70;89.70
20487;DHT22;10402;49.012;8.370;2024-01-30T04:37:05;4.70;89.70
20487;DHT22;10402;49.012;8.370;2024-01-30T04:39:33;4.70;90.10
20487;DHT22;10402;49.012;8.370;2024-01-30T04:41:58;4.70;89.50
20487;DHT22;10402;49.012;8.370;2024-01-30T04:44:24;4.70;89.60
20487;DHT22;10402;49.012;8.370;2024-01-30T04:46:50;4.70;89.60
20487;DHT22;10402;49.012;8.370;2024-01-30T04:49:15;4.70;89.70
20487;DHT22;10402;49.012;8.370;2024-01-30T04:51:41;4.70;89.80
20487;DHT22;10402;49.012;8.370;2024-01-30T04:54:06;4.70;89.70
20487;DHT22;10402;49.012;8.370;2024-01-30T04:56:32;4.70;89.80
20487;DHT22;10402;49.012;8.370;2024-01-30T04:58:57;4.60;89.70
20487;DHT22;10402;49.012;8.370;2024-01-30T05:01:23;4.60;89.70
20487;DHT22;10402;49.012;8.370;2024-01-30T05:03:48;4.60;89.60
20487;DHT22;10402;49.012;8.370;2024-01-30T05:06:24;4.70;89.80
20487;DHT22;10402;49.012;8.370;2024-01-30T05:08:50;4.60;89.60
20487;DHT22;10402;49.012;8.370;2024-01-30T05:11:16;4.60;89.60
20487;DHT22;10402;49.012;8.370;2024-01-30T05:13:41;4.60;89.70
20487;DHT22;10402;49.012;8.370;2024-01-30T05:16:07;4.60;89.70
20487;DHT22;10402;49.012;8.370;2024-01-30T05:18:32;4.60;89.60
20487;DHT22;10402;49.012;8.370;2024-01-30T05:20:58;4.70;89.70
20487;DHT22;10402;49.012;8.370;2024-01-30T05:23:23;4.70;89.70
20487;DHT22;10402;49.012;8.370;2024-01-30T05:25:49;4.70;89.80
20487;DHT22;10402;49.012;8.370;2024-01-30T05:28:14;4.70;89.80
20487;DHT22;10402;49.012;8.370;2024-01-30T05:30:40;4.70;89.80
20487;DHT22;10402;49.012;8.370;2024-01-30T05:33:05;4.70;89.50
20487;DHT22;10402;49.012;8.370;2024-01-30T05:35:31;4.70;89.40
20487;DHT22;10402;49.012;8.370;2024-01-30T05:37:57;4.70;89.40
20487;DHT22;10402;49.012;8.370;2024-01-30T05:40:22;4.70;89.30
20487;DHT22;10402;49.012;8.370;2024-01-30T05:42:48;4.70;89.30
20487;DHT22;10402;49.012;8.370;2024-01-30T05:45:13;4.60;89.20
20487;DHT22;10402;49.012;8.370;2024-01-30T05:47:39;4.60;89.40
20487;DHT22;10402;49.012;8.370;2024-01-30T05:50:05;4.60;89.50
20487;DHT22;10402;49.012;8.370;2024-01-30T05:52:31;4.60;89.60
20487;DHT22;10402;49.012;8.370;2024-01-30T05:54:57;4.60;89.70
20487;DHT22;10402;49.012;8.370;2024-01-30T05:57:22;4.60;89.70
20487;DHT22;10402;49.012;8.370;2024-01-30T05:59:48;4.70;89.70
20487;DHT22;10402;49.012;8.370;2024-01-30T06:02:14;4.60;89.70
20487;DHT22;10402;49.012;8.370;2024-01-30T06:04:39;4.60;89.80
20487;DHT22;10402;49.012;8.370;2024-01-30T06:07:05;4.60;89.80
20487;DHT22;10402;49.012;8.370;2024-01-30T06:09:31;4.60;89.90
20487;DHT22;10402;49.012;8.370;2024-01-30T06:11:57;4.70;90.00
20487;DHT22;10402;49.012;8.370;2024-01-30T06:14:23;4.70;89.80
20487;DHT22;10402;49.012;8.370;2024-01-30T06:16:49;4.70;89.80
20487;DHT22;10402;49.012;8.370;2024-01-30T06:19:15;4.70;89.90
20487;DHT22;10402;49.012;8.370;2024-01-30T06:21:40;4.70;89.60
20487;DHT22;10402;49.012;8.370;2024-01-30T06:24:06;4.70;89.60
20487;DHT22;10402;49.012;8.370;2024-01-30T06:26:31;4.60;89.70
20487;DHT22;10402;49.012;8.370;2024-01-30T06:28:57;4.60;90.00
20487;DHT22;10402;49.012;8.370;2024-01-30T06:31:22;4.60;90.00
20487;DHT22;10402;49.012;8.370;2024-01-30T06:33:48;4.60;89.90
20487;DHT22;10402;49.012;8.370;2024-01-30T06:36:14;4.60;90.00
20487;DHT22;10402;49.012;8.370;2024-01-30T06:38:40;4.60;90.00
20487;DHT22;10402;49.012;8.370;2024-01-30T06:41:06;4.60;90.00
20487;DHT22;10402;49.012;8.370;2024-01-30T06:43:31;4.60;90.10
20487;DHT22;10402;49.012;8.370;2024-01-30T06:45:57;4.60;90.10
20487;DHT22;10402;49.012;8.370;2024-01-30T06:48:23;4.60;90.20
20487;DHT22;10402;49.012;8.370;2024-01-30T06:50:48;4.60;90.20
20487;DHT22;10402;49.012;8.370;2024-01-30T06:53:14;4.60;90.20
20487;DHT22;10402;49.012;8.370;2024-01-30T06:55:40;4.60;90.20
20487;DHT22;10402;49.012;8.370;2024-01-30T06:58:06;4.60;90.00
20487;DHT22;10402;49.012;8.370;2024-01-30T07:00:32;4.50;90.00
20487;DHT22;10402;49.012;8.370;2024-01-30T07:02:57;4.60;90.10
20487;DHT22;10402;49.012;8.370;2024-01-30T07:05:23;4.60;90.20
20487;DHT22;10402;49.012;8.370;2024-01-30T07:07:48;4.60;90.30
20487;DHT22;10402;49.012;8.370;2024-01-30T07:10:14;4.60;90.40
20487;DHT22;10402;49.012;8.370;2024-01-30T07:12:40;4.70;90.30
20487;DHT22;10402;49.012;8.370;2024-01-30T07:15:05;4.70;90.30
20487;DHT22;10402;49.012;8.370;2024-01-30T07:17:34;4.70;90.20
20487;DHT22;10402;49.012;8.370;2024-01-30T07:20:00;4.70;90.10
20487;DHT22;10402;49.012;8.370;2024-01-30T07:22:26;4.70;90.20
20487;DHT22;10402;49.012;8.370;2024-01-30T07:24:51;4.70;90.40
20487;DHT22;10402;49.012;8.370;2024-01-30T07:27:17;4.70;90.50
20487;DHT22;10402;49.012;8.370;2024-01-30T07:29:43;4.70;90.50
20487;DHT22;10402;49.012;8.370;2024-01-30T07:32:09;4.80;90.50
20487;DHT22;10402;49.012;8.370;2024-01-30T07:34:34;4.80;90.70
20487;DHT22;10402;49.012;8.370;2024-01-30T07:37:01;4.80;90.70
20487;DHT22;10402;49.012;8.370;2024-01-30T07:39:28;4.90;90.80
20487;DHT22;10402;49.012;8.370;2024-01-30T07:41:53;5.00;90.80
20487;DHT22;10402;49.012;8.370;2024-01-30T07:44:20;5.00;90.80
20487;DHT22;10402;49.012;8.370;2024-01-30T07:46:46;5.00;90.80
20487;DHT22;10402;49.012;8.370;2024-01-30T07:49:11;5.10;90.80
20487;DHT22;10402;49.012;8.370;2024-01-30T07:51:39;5.10;90.70
20487;DHT22;10402;49.012;8.370;2024-01-30T07:54:05;5.10;90.70
20487;DHT22;10402;49.012;8.370;2024-01-30T07:56:30;5.10;90.70
20487;DHT22;10402;49.012;8.370;2024-01-30T07:58:56;5.20;90.70
20487;DHT22;10402;49.012;8.370;2024-01-30T08:01:21;5.20;90.70
20487;DHT22;10402;49.012;8.370;2024-01-30T08:03:47;5.20;90.70
20487;DHT22;10402;49.012;8.370;2024-01-30T08:06:12;5.30;90.70
20487;DHT22;10402;49.012;8.370;2024-01-30T08:08:38;5.30;90.70
20487;DHT22;10402;49.012;8.370;2024-01-30T08:11:03;5.30;90.70
20487;DHT22;10402;49.012;8.370;2024-01-30T08:13:29;5.40;90.70
20487;DHT22;10402;49.012;8.370;2024-01-30T08:15:55;5.40;90.60
20487;DHT22;10402;49.012;8.370;2024-01-30T08:18:20;5.50;90.70
20487;DHT22;10402;49.012;8.370;2024-01-30T08:20:46;5.50;90.60
20487;DHT22;10402;49.012;8.370;2024-01-30T08:23:11;5.50;90.60
20487;DHT22;10402;49.012;8.370;2024-01-30T08:25:37;5.50;90.60
20487;DHT22;10402;49.012;8.370;2024-01-30T08:28:03;5.60;90.70
20487;DHT22;10402;49.012;8.370;2024-01-30T08:30:29;5.60;90.70
20487;DHT22;10402;49.012;8.370;2024-01-30T08:32:55;5.60;90.70
20487;DHT22;10402;49.012;8.370;2024-01-30T08:35:20;5.70;90.90
20487;DHT22;10402;49.012;8.370;2024-01-30T08:37:46;5.70;90.90
20487;DHT22;10402;49.012;8.370;2024-01-30T08:40:11;5.70;90.90
20487;DHT22;10402;49.012;8.370;2024-01-30T08:42:37;5.70;91.00
20487;DHT22;10402;49.012;8.370;2024-01-30T08:45:02;5.70;91.00
20487;DHT22;10402;49.012;8.370;2024-01-30T08:47:30;5.80;91.10
20487;DHT22;10402;49.012;8.370;2024-01-30T08:49:56;5.80;91.00
20487;DHT22;10402;49.012;8.370;2024-01-30T08:52:21;5.80;91.00
20487;DHT22;10402;49.012;8.370;2024-01-30T08:54:47;5.80;91.00
20487;DHT22;10402;49.012;8.370;2024-01-30T08:57:13;5.80;91.00
20487;DHT22;10402;49.012;8.370;2024-01-30T08:59:38;5.90;91.00
20487;DHT22;10402;49.012;8.370;2024-01-30T09:02:04;5.90;90.90
20487;DHT22;10402;49.012;8.370;2024-01-30T09:04:30;6.00;91.00
20487;DHT22;10402;49.012;8.370;2024-01-30T09:06:55;6.00;91.00
20487;DHT22;10402;49.012;8.370;2024-01-30T09:09:21;6.00;91.00
20487;DHT22;10402;49.012;8.370;2024-01-30T09:11:47;6.00;91.00
20487;DHT22;10402;49.012;8.370;2024-01-30T09:14:12;6.10;91.00
20487;DHT22;10402;49.012;8.370;2024-01-30T09:16:38;6.10;91.00
20487;DHT22;10402;49.012;8.370;2024-01-30T09:19:04;6.20;91.00
20487;DHT22;10402;49.012;8.370;2024-01-30T09:21:29;6.20;90.90
20487;DHT22;10402;49.012;8.370;2024-01-30T09:24:01;6.20;90.90
20487;DHT22;10402;49.012;8.370;2024-01-30T09:26:28;6.20;90.80
20487;DHT22;10402;49.012;8.370;2024-01-30T09:28:53;6.30;90.80
20487;DHT22;10402;49.012;8.370;2024-01-30T09:31:19;6.30;90.70
20487;DHT22;10402;49.012;8.370;2024-01-30T09:33:44;6.30;90.70
20487;DHT22;10402;49.012;8.370;2024-01-30T09:36:12;6.30;90.70
20487;DHT22;10402;49.012;8.370;2024-01-30T09:38:40;6.30;90.70
20487;DHT22;10402;49.012;8.370;2024-01-30T09:41:09;6.40;90.80
20487;DHT22;10402;49.012;8.370;2024-01-30T09:43:35;6.40;90.80
20487;DHT22;10402;49.012;8.370;2024-01-30T09:46:03;6.40;90.70
20487;DHT22;10402;49.012;8.370;2024-01-30T09:48:30;6.40;90.70
20487;DHT22;10402;49.012;8.370;2024-01-30T09:50:57;6.50;90.70
20487;DHT22;10402;49.012;8.370;2024-01-30T09:53:23;6.50;90.60
20487;DHT22;10402;49.012;8.370;2024-01-30T09:55:50;6.60;90.50
20487;DHT22;10402;49.012;8.370;2024-01-30T09:58:16;6.60;90.50
20487;DHT22;10402;49.012;8.370;2024-01-30T10:00:42;6.60;90.40
20487;DHT22;10402;49.012;8.370;2024-01-30T10:03:08;6.70;90.40
20487;DHT22;10402;49.012;8.370;2024-01-30T10:05:36;6.70;90.40
20487;DHT22;10402;49.012;8.370;2024-01-30T10:08:06;6.70;90.30
20487;DHT22;10402;49.012;8.370;2024-01-30T10:10:33;6.80;90.30
20487;DHT22;10402;49.012;8.370;2024-01-30T10:12:59;6.80;90.30
20487;DHT22;10402;49.012;8.370;2024-01-30T10:15:25;6.90;90.30
20487;DHT22;10402;49.012;8.370;2024-01-30T10:17:53;6.90;90.30
20487;DHT22;10402;49.012;8.370;2024-01-30T10:20:18;7.00;90.30
20487;DHT22;10402;49.012;8.370;2024-01-30T10:22:45;7.00;90.20
20487;DHT22;10402;49.012;8.370;2024-01-30T10:25:11;7.10;90.20
20487;DHT22;10402;49.012;8.370;2024-01-30T10:27:36;7.10;90.10
20487;DHT22;10402;49.012;8.370;2024-01-30T10:30:04;7.20;90.20
20487;DHT22;10402;49.012;8.370;2024-01-30T10:32:30;7.20;90.10
20487;DHT22;10402;49.012;8.370;2024-01-30T10:34:56;7.30;90.00
20487;DHT22;10402;49.012;8.370;2024-01-30T10:37:25;7.40;90.00
20487;DHT22;10402;49.012;8.370;2024-01-30T10:39:53;7.40;90.00
20487;DHT22;10402;49.012;8.370;2024-01-30T10:42:19;7.40;89.70
20487;DHT22;10402;49.012;8.370;2024-01-30T10:47:27;7.50;89.30
20487;DHT22;10402;49.012;8.370;2024-01-30T10:49:54;7.50;89.00
20487;DHT22;10402;49.012;8.370;2024-01-30T10:52:20;7.50;89.10
20487;DHT22;10402;49.012;8.370;2024-01-30T10:54:48;7.50;89.10
20487;DHT22;10402;49.012;8.370;2024-01-30T10:57:15;7.60;89.20
20487;DHT22;10402;49.012;8.370;2024-01-30T10:59:42;7.60;88.80
20487;DHT22;10402;49.012;8.370;2024-01-30T11:02:08;7.60;88.70
20487;DHT22;10402;49.012;8.370;2024-01-30T11:04:39;7.70;88.60
20487;DHT22;10402;49.012;8.370;2024-01-30T11:07:14;7.70;88.20
20487;DHT22;10402;49.012;8.370;2024-01-30T11:09:41;7.70;88.10
20487;DHT22;10402;49.012;8.370;2024-01-30T11:12:12;7.80;88.10
20487;DHT22;10402;49.012;8.370;2024-01-30T11:14:37;7.80;88.00
20487;DHT22;10402;49.012;8.370;2024-01-30T11:17:05;7.80;88.00
20487;DHT22;10402;49.012;8.370;2024-01-30T11:19:32;7.90;88.00
20487;DHT22;10402;49.012;8.370;2024-01-30T11:21:58;7.90;88.50
20487;DHT22;10402;49.012;8.370;2024-01-30T11:24:24;8.00;87.80
20487;DHT22;10402;49.012;8.370;2024-01-30T11:26:54;8.00;87.80
20487;DHT22;10402;49.012;8.370;2024-01-30T11:29:27;8.10;87.80
20487;DHT22;10402;49.012;8.370;2024-01-30T11:31:57;8.20;87.60
20487;DHT22;10402;49.012;8.370;2024-01-30T11:34:24;8.20;87.40
20487;DHT22;10402;49.012;8.370;2024-01-30T11:36:56;8.30;87.40
20487;DHT22;10402;49.012;8.370;2024-01-30T11:39:25;8.30;87.10
20487;DHT22;10402;49.012;8.370;2024-01-30T11:41:52;8.40;87.10
20487;DHT22;10402;49.012;8.370;2024-01-30T11:44:20;8.40;86.90
20487;DHT22;10402;49.012;8.370;2024-01-30T11:46:50;8.50;86.80
20487;DHT22;10402;49.012;8.370;2024-01-30T11:49:16;8.50;86.60
20487;DHT22;10402;49.012;8.370;2024-01-30T11:51:43;8.60;86.70
20487;DHT22;10402;49.012;8.370;2024-01-30T11:54:10;8.60;86.60
20487;DHT22;10402;49.012;8.370;2024-01-30T11:56:37;8.70;86.30
20487;DHT22;10402;49.012;8.370;2024-01-30T11:59:04;8.70;86.00
20487;DHT22;10402;49.012;8.370;2024-01-30T12:01:29;8.80;85.90
20487;DHT22;10402;49.012;8.370;2024-01-30T12:03:56;8.80;85.70
20487;DHT22;10402;49.012;8.370;2024-01-30T12:06:22;8.90;85.60
20487;DHT22;10402;49.012;8.370;2024-01-30T12:09:02;8.90;85.40
20487;DHT22;10402;49.012;8.370;2024-01-30T12:11:31;8.90;85.10
20487;DHT22;10402;49.012;8.370;2024-01-30T12:13:57;8.90;84.90
20487;DHT22;10402;49.012;8.370;2024-01-30T12:16:23;9.00;85.00
20487;DHT22;10402;49.012;8.370;2024-01-30T12:18:48;9.00;85.00
20487;DHT22;10402;49.012;8.370;2024-01-30T12:21:17;9.10;85.20
20487;DHT22;10402;49.012;8.370;2024-01-30T12:23:44;9.10;85.10
20487;DHT22;10402;49.012;8.370;2024-01-30T12:26:10;9.20;85.20
20487;DHT22;10402;49.012;8.370;2024-01-30T12:28:36;9.20;85.20
20487;DHT22;10402;49.012;8.370;2024-01-30T12:31:02;9.20;85.10
20487;DHT22;10402;49.012;8.370;2024-01-30T12:33:29;9.30;85.00
20487;DHT22;10402;49.012;8.370;2024-01-30T12:35:55;9.30;84.80
20487;DHT22;10402;49.012;8.370;2024-01-30T12:38:21;9.30;84.80
20487;DHT22;10402;49.012;8.370;2024-01-30T12:40:47;9.30;84.80
20487;DHT22;10402;49.012;8.370;2024-01-30T12:43:13;9.40;84.80
20487;DHT22;10402;49.012;8.370;2024-01-30T12:45:41;9.40;84.70
20487;DHT22;10402;49.012;8.370;2024-01-30T12:48:07;9.40;84.60
20487;DHT22;10402;49.012;8.370;2024-01-30T12:50:32;9.50;84.70
20487;DHT22;10402;49.012;8.370;2024-01-30T12:52:58;9.50;84.60
20487;DHT22;10402;49.012;8.370;2024-01-30T12:55:24;9.50;84.40
20487;DHT22;10402;49.012;8.370;2024-01-30T12:57:50;9.50;84.50
20487;DHT22;10402;49.012;8.370;2024-01-30T13:00:16;9.60;84.10
20487;DHT22;10402;49.012;8.370;2024-01-30T13:02:42;9.60;83.80
20487;DHT22;10402;49.012;8.370;2024-01-30T13:05:10;9.60;83.60
20487;DHT22;10402;49.012;8.370;2024-01-30T13:07:36;9.60;83.40
20487;DHT22;10402;49.012;8.370;2024-01-30T13:10:02;9.70;83.50
20487;DHT22;10402;49.012;8.370;2024-01-30T13:12:29;9.70;83.40
20487;DHT22;10402;49.012;8.370;2024-01-30T13:14:55;9.70;83.20
20487;DHT22;10402;49.012;8.370;2024-01-30T13:17:21;9.80;83.10
20487;DHT22;10402;49.012;8.370;2024-01-30T13:19:46;9.80;83.00
20487;DHT22;10402;49.012;8.370;2024-01-30T13:22:14;9.80;82.90
20487;DHT22;10402;49.012;8.370;2024-01-30T13:24:40;9.90;82.90
20487;DHT22;10402;49.012;8.370;2024-01-30T13:27:06;9.90;82.80
20487;DHT22;10402;49.012;8.370;2024-01-30T13:29:32;9.90;82.80
20487;DHT22;10402;49.012;8.370;2024-01-30T13:31:57;9.90;82.70
20487;DHT22;10402;49.012;8.370;2024-01-30T13:34:23;9.90;82.60
20487;DHT22;10402;49.012;8.370;2024-01-30T13:36:48;10.00;81.50
20487;DHT22;10402;49.012;8.370;2024-01-30T13:39:14;10.00;81.40
20487;DHT22;10402;49.012;8.370;2024-01-30T13:41:41;10.00;81.40
20487;DHT22;10402;49.012;8.370;2024-01-30T13:44:07;10.00;81.20
20487;DHT22;10402;49.012;8.370;2024-01-30T13:46:34;10.00;81.20
20487;DHT22;10402;49.012;8.370;2024-01-30T13:48:59;10.10;82.00
20487;DHT22;10402;49.012;8.370;2024-01-30T13:51:25;10.10;81.30
20487;DHT22;10402;49.012;8.370;2024-01-30T13:53:51;10.10;81.30
20487;DHT22;10402;49.012;8.370;2024-01-30T13:56:16;10.20;81.40
20487;DHT22;10402;49.012;8.370;2024-01-30T13:58:42;10.20;81.40
20487;DHT22;10402;49.012;8.370;2024-01-30T14:01:07;10.20;81.40
20487;DHT22;10402;49.012;8.370;2024-01-30T14:03:35;10.20;81.40
20487;DHT22;10402;49.012;8.370;2024-01-30T14:06:00;10.20;81.40
20487;DHT22;10402;49.012;8.370;2024-01-30T14:08:26;10.30;81.30
20487;DHT22;10402;49.012;8.370;2024-01-30T14:10:54;10.30;81.20
20487;DHT22;10402;49.012;8.370;2024-01-30T14:13:20;10.30;81.20
20487;DHT22;10402;49.012;8.370;2024-01-30T14:15:46;10.30;81.10
20487;DHT22;10402;49.012;8.370;2024-01-30T14:18:11;10.40;81.10
20487;DHT22;10402;49.012;8.370;2024-01-30T14:20:37;10.40;81.10
20487;DHT22;10402;49.012;8.370;2024-01-30T14:23:02;10.40;81.10
20487;DHT22;10402;49.012;8.370;2024-01-30T14:25:28;10.50;81.20
20487;DHT22;10402;49.012;8.370;2024-01-30T14:27:53;10.40;81.10
20487;DHT22;10402;49.012;8.370;2024-01-30T14:30:19;10.50;81.20
20487;DHT22;10402;49.012;8.370;2024-01-30T14:32:45;10.50;81.20
20487;DHT22;10402;49.012;8.370;2024-01-30T14:35:10;10.50;81.20
20487;DHT22;10402;49.012;8.370;2024-01-30T14:37:37;10.50;81.20
20487;DHT22;10402;49.012;8.370;2024-01-30T14:40:03;10.50;81.20
20487;DHT22;10402;49.012;8.370;2024-01-30T14:42:30;10.50;81.20
20487;DHT22;10402;49.012;8.370;2024-01-30T14:44:57;10.50;81.30
20487;DHT22;10402;49.012;8.370;2024-01-30T14:47:24;10.50;81.30
20487;DHT22;10402;49.012;8.370;2024-01-30T14:49:50;10.60;81.40
20487;DHT22;10402;49.012;8.370;2024-01-30T14:52:17;10.60;81.40
20487;DHT22;10402;49.012;8.370;2024-01-30T14:54:42;10.50;81.40
20487;DHT22;10402;49.012;8.370;2024-01-30T14:57:08;10.50;81.40
20487;DHT22;10402;49.012;8.370;2024-01-30T14:59:35;10.60;81.60
20487;DHT22;10402;49.012;8.370;2024-01-30T15:02:00;10.50;81.50
20487;DHT22;10402;49.012;8.370;2024-01-30T15:04:26;10.50;81.50
20487;DHT22;10402;49.012;8.370;2024-01-30T15:06:52;10.60;81.60
20487;DHT22;10402;49.012;8.370;2024-01-30T15:09:17;10.50;81.60
20487;DHT22;10402;49.012;8.370;2024-01-30T15:11:44;10.60;81.80
20487;DHT22;10402;49.012;8.370;2024-01-30T15:14:09;10.50;81.80
20487;DHT22;10402;49.012;8.370;2024-01-30T15:16:35;10.50;81.70
20487;DHT22;10402;49.012;8.370;2024-01-30T15:19:01;10.50;81.70
20487;DHT22;10402;49.012;8.370;2024-01-30T15:21:28;10.60;81.80
20487;DHT22;10402;49.012;8.370;2024-01-30T15:23:54;10.60;81.80
20487;DHT22;10402;49.012;8.370;2024-01-30T15:26:20;10.60;81.90
20487;DHT22;10402;49.012;8.370;2024-01-30T15:28:46;10.60;82.00
20487;DHT22;10402;49.012;8.370;2024-01-30T15:31:11;10.50;82.00
20487;DHT22;10402;49.012;8.370;2024-01-30T15:33:37;10.50;82.20
20487;DHT22;10402;49.012;8.370;2024-01-30T15:36:03;10.50;82.20
20487;DHT22;10402;49.012;8.370;2024-01-30T15:38:29;10.50;82.40
20487;DHT22;10402;49.012;8.370;2024-01-30T15:40:55;10.50;82.40